createdAt,value
2018-06-23T00:00:59.883Z,3.27
2018-06-23T00:03:29.175Z,3.33
2018-06-23T00:05:58.412Z,3.27
2018-06-23T00:08:27.750Z,3.43
2018-06-23T00:10:57.187Z,2.87
2018-06-23T00:13:26.496Z,3.00
2018-06-23T00:15:55.883Z,3.67
2018-06-23T00:18:25.134Z,4.07
2018-06-23T00:20:54.472Z,3.37
2018-06-23T00:23:23.786Z,3.40
2018-06-23T00:25:58.503Z,3.00
2018-06-23T00:28:27.848Z,3.20
2018-06-23T00:30:57.088Z,4.23
2018-06-23T00:33:26.420Z,3.70
2018-06-23T00:35:55.774Z,3.70
2018-06-23T00:38:25.111Z,3.67
2018-06-23T00:40:54.736Z,4.30
2018-06-23T00:43:24.008Z,3.63
2018-06-23T00:45:53.266Z,3.40
2018-06-23T00:48:22.515Z,4.10
2018-06-23T00:50:51.824Z,3.20
2018-06-23T00:53:21.204Z,3.60
2018-06-23T00:55:50.460Z,4.53
2018-06-23T00:58:19.991Z,3.20
2018-06-23T01:00:49.411Z,3.93
2018-06-23T01:03:18.682Z,4.17
2018-06-23T01:05:48.015Z,3.53
2018-06-23T01:08:17.338Z,3.23
2018-06-23T01:10:46.618Z,4.30
2018-06-23T01:13:15.992Z,4.20
2018-06-23T01:15:45.267Z,3.73
2018-06-23T01:18:14.567Z,4.20
2018-06-23T01:20:43.869Z,3.93
2018-06-23T01:23:13.203Z,3.50
2018-06-23T01:25:42.496Z,4.03
2018-06-23T01:28:11.752Z,4.67
2018-06-23T01:30:41.060Z,4.00
2018-06-23T01:33:10.585Z,4.33
2018-06-23T01:35:39.941Z,3.90
2018-06-23T01:38:09.265Z,4.30
2018-06-23T01:40:38.593Z,4.40
2018-06-23T01:43:07.870Z,4.33
2018-06-23T01:45:37.197Z,5.07
2018-06-23T01:48:06.587Z,4.53
2018-06-23T01:50:35.914Z,4.13
2018-06-23T01:53:05.285Z,4.27
2018-06-23T01:55:34.674Z,4.07
2018-06-23T01:58:04.016Z,4.93
2018-06-23T02:00:33.223Z,4.37
2018-06-23T02:03:02.577Z,4.93
2018-06-23T02:05:31.887Z,4.80
2018-06-23T02:08:01.260Z,4.37
2018-06-23T02:10:30.571Z,4.17
2018-06-23T02:12:59.882Z,3.63
2018-06-23T02:15:34.465Z,4.83
2018-06-23T02:18:09.008Z,4.10
2018-06-23T02:20:43.686Z,3.73
2018-06-23T02:23:18.183Z,4.80
2018-06-23T02:25:52.704Z,4.17
2018-06-23T02:28:27.418Z,4.97
2018-06-23T02:31:02.028Z,4.30
2018-06-23T02:33:36.436Z,4.20
2018-06-23T02:36:05.762Z,5.10
2018-06-23T02:38:35.039Z,4.77
2018-06-23T02:41:04.394Z,4.30
2018-06-23T02:43:33.704Z,4.23
2018-06-23T02:46:03.060Z,5.10
2018-06-23T02:48:32.351Z,4.13
2018-06-23T02:51:01.628Z,4.60
2018-06-23T02:53:30.827Z,4.63
2018-06-23T02:56:00.077Z,4.93
2018-06-23T02:58:29.383Z,4.63
2018-06-23T03:00:58.724Z,4.23
2018-06-23T03:03:27.963Z,4.40
2018-06-23T03:05:57.265Z,4.33
2018-06-23T03:08:26.849Z,4.53
2018-06-23T03:10:56.171Z,3.93
2018-06-23T03:13:25.522Z,5.27
2018-06-23T03:15:54.820Z,4.73
2018-06-23T03:18:24.100Z,4.53
2018-06-23T03:20:53.410Z,4.73
2018-06-23T03:23:22.744Z,4.37
2018-06-23T03:25:52.043Z,4.57
2018-06-23T03:28:21.288Z,4.13
2018-06-23T03:30:50.540Z,4.30
2018-06-23T03:33:19.802Z,4.73
2018-06-23T03:35:49.057Z,4.47
2018-06-23T03:38:18.314Z,3.80
2018-06-23T03:40:47.639Z,4.70
2018-06-23T03:43:17.936Z,3.47
2018-06-23T03:45:48.059Z,5.33
2018-06-23T03:48:17.423Z,4.47
2018-06-23T03:50:46.700Z,4.30
2018-06-23T03:53:16.008Z,4.83
2018-06-23T03:55:45.232Z,4.13
2018-06-23T03:58:14.551Z,4.77
2018-06-23T04:00:49.130Z,4.67
2018-06-23T04:03:18.475Z,5.27
2018-06-23T04:05:48.350Z,4.17
2018-06-23T04:08:18.086Z,4.33
2018-06-23T04:10:47.405Z,4.40
2018-06-23T04:13:16.768Z,4.67
2018-06-23T04:15:46.089Z,4.33
2018-06-23T04:18:15.343Z,5.00
2018-06-23T04:20:44.691Z,4.80
2018-06-23T04:23:13.978Z,4.50
2018-06-23T04:25:43.396Z,4.90
2018-06-23T04:28:12.978Z,4.50
2018-06-23T04:30:42.287Z,5.20
2018-06-23T04:33:11.549Z,5.83
2018-06-23T04:35:40.839Z,5.93
2018-06-23T04:38:10.085Z,5.07
2018-06-23T04:40:39.365Z,3.83
2018-06-23T04:43:08.640Z,4.70
2018-06-23T04:45:37.939Z,5.27
2018-06-23T04:48:07.275Z,4.43
2018-06-23T04:50:36.490Z,5.97
2018-06-23T04:53:05.726Z,5.17
2018-06-23T04:55:34.935Z,5.67
2018-06-23T04:58:04.203Z,5.87
2018-06-23T05:00:33.565Z,5.00
2018-06-23T05:03:02.832Z,5.37
2018-06-23T05:05:32.151Z,5.37
2018-06-23T05:08:01.728Z,5.00
2018-06-23T05:10:31.058Z,5.30
2018-06-23T05:13:00.290Z,5.17
2018-06-23T05:15:29.593Z,4.57
2018-06-23T05:17:58.959Z,4.30
2018-06-23T05:20:28.295Z,5.10
2018-06-23T05:22:57.516Z,4.17
2018-06-23T05:25:26.909Z,5.20
2018-06-23T05:27:56.308Z,4.67
2018-06-23T05:30:25.570Z,5.07
2018-06-23T05:32:54.787Z,4.70
2018-06-23T05:35:24.024Z,4.97
2018-06-23T05:37:53.297Z,4.83
2018-06-23T05:40:22.544Z,4.97
2018-06-23T05:42:51.800Z,4.17
2018-06-23T05:45:21.043Z,4.30
2018-06-23T05:47:50.277Z,4.50
2018-06-23T05:50:19.527Z,4.10
2018-06-23T05:52:48.809Z,4.10
2018-06-23T05:55:18.147Z,4.40
2018-06-23T05:57:47.403Z,4.93
2018-06-23T06:00:16.658Z,4.57
2018-06-23T06:02:45.903Z,4.73
2018-06-23T06:05:15.107Z,4.60
2018-06-23T06:07:44.387Z,4.40
2018-06-23T06:10:13.567Z,4.30
2018-06-23T06:12:42.814Z,3.93
2018-06-23T06:15:12.076Z,4.03
2018-06-23T06:17:41.545Z,4.13
2018-06-23T06:20:13.307Z,4.03
2018-06-23T06:22:44.782Z,4.10
2018-06-23T06:25:15.005Z,3.63
2018-06-23T06:27:44.252Z,4.37
2018-06-23T06:30:13.572Z,3.67
2018-06-23T06:32:42.797Z,4.27
2018-06-23T06:35:12.004Z,3.97
2018-06-23T06:37:41.258Z,4.03
2018-06-23T06:40:10.547Z,5.03
2018-06-23T06:42:39.799Z,4.67
2018-06-23T06:45:09.021Z,4.10
2018-06-23T06:47:38.336Z,3.90
2018-06-23T06:50:07.613Z,4.43
2018-06-23T06:52:37.113Z,4.00
2018-06-23T06:55:06.428Z,3.97
2018-06-23T06:57:35.672Z,3.73
2018-06-23T07:00:05.765Z,3.87
2018-06-23T07:02:34.995Z,3.60
2018-06-23T07:05:04.362Z,3.77
2018-06-23T07:07:33.566Z,3.33
2018-06-23T07:10:02.914Z,3.47
2018-06-23T07:12:32.209Z,3.33
2018-06-23T07:15:01.455Z,3.23
2018-06-23T07:17:31.235Z,3.07
2018-06-23T07:20:00.479Z,2.73
2018-06-23T07:22:29.707Z,2.40
2018-06-23T07:24:59.046Z,2.80
2018-06-23T07:27:28.285Z,2.77
2018-06-23T07:29:57.551Z,1.97
2018-06-23T07:32:26.740Z,2.57
2018-06-23T07:34:56.057Z,2.60
2018-06-23T07:37:25.235Z,1.83
2018-06-23T07:39:54.483Z,1.70
2018-06-23T07:42:23.746Z,2.10
2018-06-23T07:44:52.959Z,1.50
2018-06-23T07:47:22.252Z,1.70
2018-06-23T07:49:51.503Z,1.77
2018-06-23T07:52:20.773Z,1.40
2018-06-23T07:54:50.016Z,1.70
2018-06-23T07:57:19.280Z,2.07
2018-06-23T07:59:48.465Z,1.63
2018-06-23T08:02:17.810Z,1.73
2018-06-23T08:04:47.112Z,1.53
2018-06-23T08:07:16.423Z,2.03
2018-06-23T08:09:45.664Z,2.13
2018-06-23T08:12:14.903Z,1.90
2018-06-23T08:14:44.151Z,1.63
2018-06-23T08:17:13.747Z,2.20
2018-06-23T08:19:43.019Z,2.03
2018-06-23T08:22:12.222Z,1.80
2018-06-23T08:24:41.469Z,1.80
2018-06-23T08:27:10.779Z,1.57
2018-06-23T08:29:39.960Z,1.80
2018-06-23T08:32:09.223Z,1.53
2018-06-23T08:34:38.611Z,1.70
2018-06-23T08:37:07.864Z,1.90
2018-06-23T08:39:37.034Z,1.50
2018-06-23T08:42:06.296Z,1.60
2018-06-23T08:44:35.576Z,1.73
2018-06-23T08:47:05.226Z,1.73
2018-06-23T08:49:34.492Z,1.67
2018-06-23T08:52:03.753Z,1.80
2018-06-23T08:54:33.124Z,1.83
2018-06-23T08:57:02.495Z,2.10
2018-06-23T08:59:31.753Z,1.60
2018-06-23T09:02:01.107Z,1.37
2018-06-23T09:04:30.428Z,1.40
2018-06-23T09:06:59.704Z,1.47
2018-06-23T09:09:29.048Z,1.43
2018-06-23T09:11:58.937Z,1.70
2018-06-23T09:14:28.252Z,1.60
2018-06-23T09:16:57.647Z,1.30
2018-06-23T09:19:26.898Z,1.70
2018-06-23T09:21:56.264Z,1.80
2018-06-23T09:24:25.908Z,1.50
2018-06-23T09:26:55.184Z,1.60
2018-06-23T09:29:24.430Z,1.77
2018-06-23T09:31:53.751Z,1.80
2018-06-23T09:34:23.170Z,2.10
2018-06-23T09:36:52.589Z,2.10
2018-06-23T09:39:22.337Z,2.00
2018-06-23T09:41:52.064Z,1.50
2018-06-23T09:44:21.422Z,1.33
2018-06-23T09:46:50.766Z,1.90
2018-06-23T09:49:20.038Z,1.80
2018-06-23T09:51:49.438Z,2.20
2018-06-23T09:54:18.742Z,2.20
2018-06-23T09:56:48.013Z,2.37
2018-06-23T09:59:17.254Z,2.30
2018-06-23T10:01:46.558Z,1.80
2018-06-23T10:04:15.779Z,1.97
2018-06-23T10:06:45.014Z,1.93
2018-06-23T10:09:14.326Z,2.87
2018-06-23T10:11:43.657Z,2.23
2018-06-23T10:14:12.858Z,2.57
2018-06-23T10:16:42.194Z,3.10
2018-06-23T10:19:11.596Z,2.70
2018-06-23T10:21:40.909Z,2.90
2018-06-23T10:24:10.367Z,3.53
2018-06-23T10:26:39.596Z,3.17
2018-06-23T10:29:08.847Z,3.20
2018-06-23T10:31:38.195Z,3.53
2018-06-23T10:34:07.683Z,3.53
2018-06-23T10:36:36.981Z,3.90
2018-06-23T10:39:08.249Z,3.20
2018-06-23T10:41:37.728Z,3.50
2018-06-23T10:44:07.205Z,3.07
2018-06-23T10:46:36.557Z,3.03
2018-06-23T10:49:06.200Z,3.10
2018-06-23T10:51:35.879Z,3.27
2018-06-23T10:54:05.345Z,3.10
2018-06-23T10:56:34.676Z,2.60
2018-06-23T10:59:04.128Z,2.80
2018-06-23T11:01:33.508Z,2.17
2018-06-23T11:04:03.476Z,3.33
2018-06-23T11:06:32.961Z,2.60
2018-06-23T11:09:02.376Z,2.83
2018-06-23T11:11:31.782Z,3.67
2018-06-23T11:14:01.157Z,3.20
2018-06-23T11:16:30.578Z,3.40
2018-06-23T11:19:00.050Z,3.07
2018-06-23T11:21:29.696Z,3.37
2018-06-23T11:23:59.106Z,3.23
2018-06-23T11:26:28.349Z,2.73
2018-06-23T11:28:57.883Z,2.97
2018-06-23T11:31:27.258Z,3.00
2018-06-23T11:33:56.606Z,2.97
2018-06-23T11:36:26.031Z,2.90
2018-06-23T11:38:55.360Z,3.20
2018-06-23T11:41:24.643Z,2.90
2018-06-23T11:43:54.063Z,3.10
2018-06-23T11:46:23.361Z,2.77
2018-06-23T11:48:52.691Z,3.40
2018-06-23T11:51:22.065Z,3.03
2018-06-23T11:53:51.798Z,2.97
2018-06-23T11:56:21.272Z,2.90
2018-06-23T11:58:50.677Z,2.97
2018-06-23T12:01:20.155Z,2.93
2018-06-23T12:03:49.461Z,2.70
2018-06-23T12:06:22.908Z,2.57
2018-06-23T12:08:52.514Z,2.33
2018-06-23T12:11:22.808Z,2.77
2018-06-23T12:13:52.158Z,2.03
2018-06-23T12:16:21.428Z,2.40
2018-06-23T12:18:50.807Z,2.77
2018-06-23T12:21:22.988Z,3.03
2018-06-23T12:23:52.353Z,3.03
2018-06-23T12:26:21.669Z,2.63
2018-06-23T12:28:51.549Z,2.47
2018-06-23T12:31:21.075Z,2.67
2018-06-23T12:33:50.867Z,2.33
2018-06-23T12:36:20.191Z,2.40
2018-06-23T12:38:49.620Z,2.33
2018-06-23T12:41:18.983Z,2.50
2018-06-23T12:43:48.369Z,2.80
2018-06-23T12:46:17.873Z,2.97
2018-06-23T12:48:47.296Z,2.80
2018-06-23T12:51:16.619Z,2.47
2018-06-23T12:53:46.070Z,3.53
2018-06-23T12:56:15.436Z,3.17
2018-06-23T12:58:44.850Z,3.10
2018-06-23T13:01:15.169Z,3.17
2018-06-23T13:03:44.500Z,3.33
2018-06-23T13:06:16.095Z,3.50
2018-06-23T13:08:45.417Z,2.67
2018-06-23T13:11:14.710Z,2.93
2018-06-23T13:13:44.107Z,2.60
2018-06-23T13:16:13.486Z,2.80
2018-06-23T13:18:43.675Z,2.97
2018-06-23T13:21:13.301Z,3.40
2018-06-23T13:23:43.102Z,2.80
2018-06-23T13:26:12.526Z,2.70
2018-06-23T13:28:41.800Z,3.77
2018-06-23T13:31:11.105Z,3.00
2018-06-23T13:33:40.441Z,2.50
2018-06-23T13:36:09.942Z,2.27
2018-06-23T13:38:39.282Z,2.33
2018-06-23T13:41:08.894Z,2.17
2018-06-23T13:43:38.272Z,2.33
2018-06-23T13:46:07.717Z,2.70
2018-06-23T13:48:37.486Z,2.20
2018-06-23T13:51:06.884Z,2.67
2018-06-23T13:53:36.219Z,1.67
2018-06-23T13:56:05.598Z,1.67
2018-06-23T13:58:35.013Z,1.90
2018-06-23T14:01:04.890Z,2.00
2018-06-23T14:03:34.794Z,1.70
2018-06-23T14:06:05.106Z,1.87
2018-06-23T14:08:35.089Z,1.73
2018-06-23T14:11:04.981Z,2.00
2018-06-23T14:13:35.138Z,2.37
2018-06-23T14:16:05.207Z,2.20
2018-06-23T14:18:34.968Z,1.83
2018-06-23T14:21:04.362Z,1.57
2018-06-23T14:23:33.900Z,1.93
2018-06-23T14:26:03.328Z,1.70
2018-06-23T14:28:32.827Z,1.70
2018-06-23T14:31:02.239Z,1.60
2018-06-23T14:33:31.720Z,1.57
2018-06-23T14:36:01.159Z,1.70
2018-06-23T14:38:30.489Z,1.73
2018-06-23T14:40:59.804Z,1.53
2018-06-23T14:43:29.688Z,1.83
2018-06-23T14:45:59.058Z,1.90
2018-06-23T14:48:28.623Z,1.67
2018-06-23T14:50:58.388Z,1.80
2018-06-23T14:53:28.083Z,1.97
2018-06-23T14:55:57.503Z,1.80
2018-06-23T14:58:27.243Z,1.80
2018-06-23T15:00:56.702Z,1.47
2018-06-23T15:03:26.194Z,1.80
2018-06-23T15:05:55.567Z,1.70
2018-06-23T15:08:36.029Z,2.20
2018-06-23T15:11:16.428Z,2.13
2018-06-23T15:13:45.894Z,1.87
2018-06-23T15:16:16.298Z,1.70
2018-06-23T15:18:45.849Z,1.90
2018-06-23T15:21:15.379Z,1.40
2018-06-23T15:23:44.658Z,1.73
2018-06-23T15:26:14.589Z,2.53
2018-06-23T15:28:44.226Z,1.90
2018-06-23T15:31:13.808Z,1.90
2018-06-23T15:33:43.706Z,2.43
2018-06-23T15:36:14.201Z,2.00
2018-06-23T15:38:43.700Z,2.60
2018-06-23T15:41:13.052Z,3.30
2018-06-23T15:43:42.359Z,2.23
2018-06-23T15:46:11.686Z,2.17
2018-06-23T15:48:41.007Z,2.57
2018-06-23T15:51:10.349Z,2.40
2018-06-23T15:53:39.684Z,2.80
2018-06-23T15:56:09.104Z,2.40
2018-06-23T15:58:38.438Z,2.17
2018-06-23T16:01:07.873Z,2.43
2018-06-23T16:03:37.270Z,2.70
2018-06-23T16:06:06.663Z,2.33
2018-06-23T16:08:35.992Z,2.43
2018-06-23T16:11:05.377Z,2.93
2018-06-23T16:13:34.860Z,2.83
2018-06-23T16:16:04.117Z,2.90
2018-06-23T16:18:33.480Z,2.83
2018-06-23T16:21:03.117Z,3.77
2018-06-23T16:23:33.006Z,3.10
2018-06-23T16:26:02.412Z,3.53
2018-06-23T16:28:31.699Z,3.73
2018-06-23T16:31:01.086Z,3.93
2018-06-23T16:33:30.435Z,3.50
2018-06-23T16:35:59.792Z,4.87
2018-06-23T16:38:29.274Z,4.50
2018-06-23T16:40:58.890Z,4.83
2018-06-23T16:43:29.251Z,4.30
2018-06-23T16:45:58.768Z,4.23
2018-06-23T16:48:28.251Z,4.30
2018-06-23T16:50:57.510Z,4.00
2018-06-23T16:53:26.811Z,3.57
2018-06-23T16:55:56.290Z,3.90
2018-06-23T16:58:25.708Z,4.13
2018-06-23T17:00:55.403Z,4.03
2018-06-23T17:03:24.968Z,4.17
2018-06-23T17:05:54.316Z,3.93
2018-06-23T17:08:23.732Z,4.33
2018-06-23T17:10:53.633Z,3.87
2018-06-23T17:13:23.065Z,4.00
2018-06-23T17:15:52.666Z,4.10
2018-06-23T17:18:22.068Z,3.87
2018-06-23T17:20:51.493Z,3.63
2018-06-23T17:23:20.865Z,3.27
2018-06-23T17:25:50.267Z,3.80
2018-06-23T17:28:19.575Z,3.60
2018-06-23T17:30:49.066Z,3.70
2018-06-23T17:35:43.305Z,4.10
2018-06-23T17:38:13.022Z,3.60
2018-06-23T17:40:42.864Z,3.83
2018-06-23T17:43:12.219Z,4.23
2018-06-23T17:45:41.558Z,3.90
2018-06-23T17:48:10.981Z,3.80
2018-06-23T17:50:40.297Z,3.23
2018-06-23T17:53:09.714Z,3.60
2018-06-23T17:55:39.062Z,4.03
2018-06-23T17:58:08.476Z,3.87
2018-06-23T18:00:38.364Z,3.20
2018-06-23T18:03:08.350Z,3.77
2018-06-23T18:05:37.730Z,3.40
2018-06-23T18:08:06.734Z,3.70
2018-06-23T18:10:36.254Z,3.40
2018-06-23T18:13:05.532Z,3.40
2018-06-23T18:15:34.887Z,3.27
2018-06-23T18:18:04.194Z,3.20
2018-06-23T18:20:33.645Z,4.17
2018-06-23T18:23:02.951Z,2.97
2018-06-23T18:25:32.828Z,5.77
2018-06-23T18:28:02.056Z,3.67
2018-06-23T18:30:31.554Z,3.40
2018-06-23T18:33:00.937Z,8.33
2018-06-23T18:35:30.295Z,11.87
2018-06-23T18:37:59.654Z,3.33
2018-06-23T18:40:29.024Z,3.43
2018-06-23T18:42:58.415Z,5.57
2018-06-23T18:45:27.796Z,5.40
2018-06-23T18:47:57.126Z,3.80
2018-06-23T18:50:27.221Z,3.33
2018-06-23T18:52:56.448Z,3.53
2018-06-23T18:55:25.839Z,3.40
2018-06-23T18:57:54.992Z,4.20
2018-06-23T19:00:24.327Z,4.70
2018-06-23T19:02:54.350Z,3.00
2018-06-23T19:05:23.811Z,3.90
2018-06-23T19:07:53.285Z,3.10
2018-06-23T19:10:22.621Z,2.53
2018-06-23T19:12:52.095Z,3.10
2018-06-23T19:15:21.837Z,3.43
2018-06-23T19:17:51.261Z,3.03
2018-06-23T19:20:20.827Z,3.60
2018-06-23T19:22:51.231Z,3.20
2018-06-23T19:25:20.555Z,3.37
2018-06-23T19:27:50.017Z,4.30
2018-06-23T19:30:19.406Z,3.93
2018-06-23T19:32:49.053Z,5.30
2018-06-23T19:35:18.191Z,6.20
2018-06-23T19:37:47.450Z,4.33
2018-06-23T19:40:16.925Z,4.23
2018-06-23T19:42:46.274Z,3.97
2018-06-23T19:45:15.352Z,3.33
2018-06-23T19:47:44.654Z,3.60
2018-06-23T19:50:13.984Z,3.97
2018-06-23T19:52:43.314Z,4.20
2018-06-23T19:55:12.802Z,4.43
2018-06-23T19:57:42.069Z,4.50
2018-06-23T20:00:11.358Z,4.97
2018-06-23T20:02:40.864Z,4.57
2018-06-23T20:05:10.201Z,5.10
2018-06-23T20:07:39.286Z,5.13
2018-06-23T20:10:08.444Z,6.50
2018-06-23T20:12:37.723Z,6.20
2018-06-23T20:15:07.404Z,6.00
2018-06-23T20:17:36.784Z,5.97
2018-06-23T20:20:06.623Z,7.40
2018-06-23T20:22:35.959Z,6.17
2018-06-23T20:25:06.415Z,6.27
2018-06-23T20:27:35.814Z,6.73
2018-06-23T20:30:05.895Z,6.87
2018-06-23T20:32:35.334Z,6.87
2018-06-23T20:35:04.783Z,6.60
2018-06-23T20:37:34.127Z,6.97
2018-06-23T20:40:03.583Z,7.43
2018-06-23T20:42:33.007Z,7.47
2018-06-23T20:45:02.789Z,7.20
2018-06-23T20:47:32.247Z,7.60
2018-06-23T20:50:01.603Z,7.63
2018-06-23T20:52:30.915Z,8.37
2018-06-23T20:55:00.353Z,8.07
2018-06-23T20:57:29.987Z,8.53
2018-06-23T20:59:59.452Z,9.23
2018-06-23T21:02:28.822Z,8.03
2018-06-23T21:04:58.683Z,8.40
2018-06-23T21:07:28.430Z,8.27
2018-06-23T21:09:58.328Z,8.67
2018-06-23T21:12:28.067Z,8.53
2018-06-23T21:14:57.497Z,8.97
2018-06-23T21:17:27.957Z,9.20
2018-06-23T21:19:57.446Z,9.50
2018-06-23T21:22:26.826Z,9.47
2018-06-23T21:24:56.178Z,10.03
2018-06-23T21:27:25.707Z,9.93
2018-06-23T21:29:55.135Z,8.77
2018-06-23T21:32:25.267Z,9.00
2018-06-23T21:34:54.583Z,8.77
2018-06-23T21:37:24.010Z,8.80
2018-06-23T21:39:53.337Z,9.57
2018-06-23T21:42:22.649Z,9.00
2018-06-23T21:44:52.004Z,8.70
2018-06-23T21:47:21.608Z,9.00
2018-06-23T21:49:50.890Z,9.20
2018-06-23T21:52:20.320Z,8.60
2018-06-23T21:54:49.628Z,9.30
2018-06-23T21:57:18.952Z,9.23
2018-06-23T21:59:48.231Z,9.73
2018-06-23T22:02:17.573Z,10.90
2018-06-23T22:04:46.919Z,10.30
2018-06-23T22:07:16.351Z,12.00
2018-06-23T22:09:45.648Z,11.73
2018-06-23T22:12:14.947Z,10.90
2018-06-23T22:14:44.283Z,11.17
2018-06-23T22:17:13.755Z,11.73
2018-06-23T22:19:43.054Z,11.27
2018-06-23T22:22:12.366Z,10.93
2018-06-23T22:24:41.742Z,11.30
2018-06-23T22:27:11.228Z,12.40
2018-06-23T22:29:41.250Z,10.97
2018-06-23T22:32:10.549Z,11.33
2018-06-23T22:34:39.902Z,11.87
2018-06-23T22:37:09.306Z,12.10
2018-06-23T22:39:38.626Z,11.70
2018-06-23T22:42:07.659Z,11.23
2018-06-23T22:44:36.867Z,11.10
2018-06-23T22:47:06.281Z,9.30
2018-06-23T22:49:35.578Z,10.43
2018-06-23T22:52:05.160Z,9.27
2018-06-23T22:54:34.451Z,9.07
2018-06-23T22:57:03.835Z,8.50
2018-06-23T22:59:33.216Z,8.53
2018-06-23T23:02:02.538Z,9.03
2018-06-23T23:04:31.891Z,8.80
2018-06-23T23:07:01.257Z,9.40
2018-06-23T23:09:30.357Z,9.57
2018-06-23T23:11:59.547Z,8.60
2018-06-23T23:14:28.885Z,9.27
2018-06-23T23:16:57.910Z,7.90
2018-06-23T23:19:27.483Z,7.00
2018-06-23T23:21:56.787Z,7.70
2018-06-23T23:24:26.265Z,8.07
2018-06-23T23:26:55.584Z,8.00
2018-06-23T23:29:24.862Z,7.80
2018-06-23T23:31:54.360Z,7.53
2018-06-23T23:34:23.691Z,7.10
2018-06-23T23:36:52.958Z,6.77
2018-06-23T23:39:22.266Z,7.43
2018-06-23T23:41:51.560Z,7.27
2018-06-23T23:44:20.810Z,7.63
2018-06-23T23:46:50.164Z,7.37
2018-06-23T23:49:19.511Z,7.17
2018-06-23T23:51:48.821Z,7.33
2018-06-23T23:54:18.155Z,6.60
2018-06-23T23:56:47.479Z,7.33
2018-06-23T23:59:16.801Z,6.83
